Time;durP1;ratioP1;P1;durP2;ratioP2;P2;SDS_P1;SDS_P2;PMS_P1;PMS_P2;Temp;Humidity;BMP_temperature;BMP_pressure;BME280_temperature;BME280_humidity;BME280_pressure;Samples;Min_cycle;Max_cycle;Signal;HPM_P1;HPM_P2
2022/09/13 00:01:12;;;;;;;19.42;12.63;;;13.20;99.90;;;;;;6125391;23;20017;-78
2022/09/13 00:03:39;;;;;;;20.70;12.15;;;13.20;99.90;;;;;;6099760;23;20025;-78
2022/09/13 00:06:13;;;;;;;19.13;12.23;;;13.20;99.90;;;;;;6125545;23;20459;-79
2022/09/13 00:08:42;;;;;;;13.32;11.20;;;13.20;99.90;;;;;;6151356;23;20355;-78
2022/09/13 00:11:17;;;;;;;18.20;11.75;;;13.20;99.90;;;;;;6150299;23;20041;-78
2022/09/13 00:13:44;;;;;;;19.23;12.43;;;13.20;99.90;;;;;;6124473;23;20049;-78
2022/09/13 00:16:14;;;;;;;17.80;11.90;;;13.10;99.90;;;;;;6127891;23;20051;-78
2022/09/13 00:18:41;;;;;;;20.77;13.00;;;13.10;99.90;;;;;;6152366;23;20088;-78
2022/09/13 00:21:11;;;;;;;20.48;11.95;;;13.10;99.90;;;;;;6126282;23;20069;-78
2022/09/13 00:23:40;;;;;;;13.13;9.68;;;13.00;99.90;;;;;;6154045;23;20415;-78
2022/09/13 00:26:11;;;;;;;23.20;11.32;;;13.00;99.90;;;;;;6154028;23;20454;-78
2022/09/13 00:28:39;;;;;;;18.35;10.93;;;13.00;99.90;;;;;;6125968;23;20017;-78
2022/09/13 00:31:09;;;;;;;21.05;11.30;;;13.00;99.90;;;;;;6102009;23;20025;-78
2022/09/13 00:33:37;;;;;;;17.75;10.68;;;12.90;99.90;;;;;;6131307;23;20389;-78
2022/09/13 00:36:06;;;;;;;14.90;10.20;;;12.90;99.90;;;;;;6153254;23;20044;-76
2022/09/13 00:38:35;;;;;;;17.00;10.13;;;12.90;99.90;;;;;;6152364;23;20022;-78
2022/09/13 00:41:04;;;;;;;12.43;10.00;;;12.90;99.90;;;;;;6151964;23;20036;-78
2022/09/13 00:43:48;;;;;;;16.42;10.45;;;12.90;99.90;;;;;;6126788;23;20030;-79
2022/09/13 00:46:23;;;;;;;14.15;10.35;;;12.90;99.90;;;;;;6125959;23;20029;-78
2022/09/13 00:48:53;;;;;;;17.08;10.65;;;12.80;99.90;;;;;;6124981;23;20021;-78
2022/09/13 00:51:21;;;;;;;19.75;10.93;;;12.80;99.90;;;;;;6126401;23;20041;-78
2022/09/13 00:53:52;;;;;;;19.98;10.77;;;12.80;99.90;;;;;;6153902;23;20025;-78
2022/09/13 00:56:25;;;;;;;19.75;10.98;;;12.70;99.90;;;;;;6152451;23;20406;-78
2022/09/13 00:58:59;;;;;;;18.52;11.68;;;12.70;99.90;;;;;;6151892;23;20021;-76
2022/09/13 01:01:34;;;;;;;14.63;9.85;;;12.70;99.90;;;;;;6125646;23;20431;-76
2022/09/13 01:04:03;;;;;;;12.38;9.90;;;12.70;99.90;;;;;;6153430;23;20279;-77
2022/09/13 01:06:33;;;;;;;12.85;10.60;;;12.80;99.90;;;;;;6151734;23;20021;-76
2022/09/13 01:09:04;;;;;;;15.52;10.45;;;12.80;99.90;;;;;;6126674;23;20017;-78
2022/09/13 01:11:41;;;;;;;17.35;10.80;;;12.80;99.90;;;;;;6153603;23;20029;-76
2022/09/13 01:14:10;;;;;;;13.20;9.85;;;12.80;99.90;;;;;;6152398;23;20092;-76
2022/09/13 01:16:38;;;;;;;12.90;10.57;;;12.80;99.90;;;;;;6151663;23;20030;-77
2022/09/13 01:19:05;;;;;;;18.58;10.20;;;12.80;99.90;;;;;;6152810;23;20022;-77
2022/09/13 01:22:24;;;;;;;12.13;9.45;;;12.80;99.90;;;;;;6153211;23;20428;-76
2022/09/13 01:25:50;;;;;;;13.15;9.63;;;12.80;99.90;;;;;;6133768;23;20044;-77
2022/09/13 01:29:04;;;;;;;13.32;10.18;;;12.70;99.90;;;;;;6060416;23;20130;-77
2022/09/13 01:31:40;;;;;;;15.88;9.75;;;12.70;99.90;;;;;;6140303;23;20361;-76
2022/09/13 01:34:20;;;;;;;16.20;9.63;;;12.70;99.90;;;;;;6151981;23;20037;-77
2022/09/13 01:37:10;;;;;;;14.30;9.68;;;12.70;99.90;;;;;;6151606;23;20048;-77
2022/09/13 01:39:58;;;;;;;13.15;9.07;;;12.70;99.90;;;;;;6154475;23;20112;-77
2022/09/13 01:42:40;;;;;;;16.10;10.15;;;12.70;99.90;;;;;;6151214;23;20032;-78
2022/09/13 01:45:22;;;;;;;12.50;9.57;;;12.70;99.90;;;;;;6151124;23;20032;-77
2022/09/13 01:47:55;;;;;;;15.98;9.48;;;12.60;99.90;;;;;;6152002;23;20021;-78
2022/09/13 01:50:35;;;;;;;12.98;9.55;;;12.60;99.90;;;;;;6151476;23;20569;-78
2022/09/13 01:53:09;;;;;;;14.10;9.50;;;12.60;99.90;;;;;;6150541;23;20029;-77
2022/09/13 01:55:44;;;;;;;15.55;9.77;;;12.60;99.90;;;;;;6151483;23;20084;-78
2022/09/13 01:58:22;;;;;;;15.45;9.85;;;12.60;99.90;;;;;;6153950;23;20026;-78
2022/09/13 02:00:58;;;;;;;13.52;9.55;;;12.60;99.90;;;;;;6150988;23;20025;-77
2022/09/13 02:03:33;;;;;;;12.77;8.98;;;12.60;99.90;;;;;;6151324;23;20070;-77
2022/09/13 02:06:06;;;;;;;13.60;9.30;;;12.60;99.90;;;;;;6125405;23;20025;-78
2022/09/13 02:08:36;;;;;;;;;;;12.60;99.90;;;;;;6152401;23;20101;-77
2022/09/13 02:11:10;;;;;;;12.13;9.93;;;12.60;99.90;;;;;;6150660;23;20299;-77
2022/09/13 02:13:42;;;;;;;15.45;10.68;;;12.60;99.90;;;;;;6150828;23;20029;-78
2022/09/13 02:16:16;;;;;;;23.08;10.25;;;12.50;99.90;;;;;;6126942;23;20053;-77
2022/09/13 02:18:49;;;;;;;14.73;10.57;;;12.50;99.90;;;;;;6151853;23;20079;-78
2022/09/13 02:21:23;;;;;;;16.42;10.60;;;12.50;99.90;;;;;;6151135;23;20025;-77
2022/09/13 02:23:54;;;;;;;15.85;10.60;;;12.50;99.90;;;;;;6153630;23;20025;-78
2022/09/13 02:26:24;;;;;;;15.43;11.00;;;12.50;99.90;;;;;;6152784;23;20025;-78
2022/09/13 02:28:53;;;;;;;14.55;11.30;;;12.50;99.90;;;;;;6124441;23;20025;-78
2022/09/13 02:31:29;;;;;;;16.05;10.98;;;12.50;99.90;;;;;;6124918;23;20026;-78
2022/09/13 02:34:03;;;;;;;15.98;11.45;;;12.40;99.90;;;;;;6152479;23;20032;-79
2022/09/13 02:36:36;;;;;;;17.63;11.60;;;12.30;99.90;;;;;;6126328;23;20025;-78
2022/09/13 02:39:09;;;;;;;17.75;12.57;;;12.30;99.90;;;;;;6150237;23;20354;-79
2022/09/13 02:41:44;;;;;;;17.17;12.77;;;12.30;99.90;;;;;;6150958;23;20100;-78
2022/09/13 02:44:16;;;;;;;26.55;16.25;;;12.30;99.90;;;;;;6153447;23;20033;-79
2022/09/13 02:47:00;;;;;;;20.45;13.98;;;12.30;99.90;;;;;;6150168;23;20032;-78
2022/09/13 02:49:35;;;;;;;21.20;16.45;;;12.20;99.90;;;;;;6150402;23;20505;-78
2022/09/13 02:52:11;;;;;;;18.75;13.90;;;12.20;99.90;;;;;;6153044;23;20034;-78
2022/09/13 02:54:49;;;;;;;18.23;14.30;;;12.20;99.90;;;;;;6126999;23;20044;-79
2022/09/13 02:57:30;;;;;;;17.25;13.48;;;12.20;99.90;;;;;;6124096;23;20017;-78
2022/09/13 02:59:58;;;;;;;17.35;13.60;;;12.20;99.90;;;;;;6126497;23;20429;-79
2022/09/13 03:02:32;;;;;;;17.95;13.77;;;12.20;99.90;;;;;;6127839;23;20022;-78
2022/09/13 03:05:02;;;;;;;18.35;12.85;;;12.20;99.90;;;;;;6151553;23;20108;-79
2022/09/13 03:07:30;;;;;;;16.30;12.38;;;12.20;99.90;;;;;;6152025;23;20026;-79
2022/09/13 03:10:00;;;;;;;17.88;12.65;;;12.20;99.90;;;;;;6126692;23;20113;-80
2022/09/13 03:13:01;;;;;;;17.95;13.13;;;12.20;99.90;;;;;;6152733;23;20113;-79
2022/09/13 03:15:45;;;;;;;19.63;13.15;;;12.30;99.90;;;;;;6149896;23;20036;-78
2022/09/13 03:18:29;;;;;;;17.27;11.48;;;12.30;99.90;;;;;;6125134;23;20427;-78
2022/09/13 03:21:08;;;;;;;13.88;10.70;;;12.30;99.90;;;;;;6151540;23;20557;-78
2022/09/13 03:23:46;;;;;;;14.48;10.85;;;12.30;99.90;;;;;;6099899;23;20029;-79
2022/09/13 03:26:26;;;;;;;12.95;11.10;;;12.30;99.90;;;;;;6151425;23;20028;-79
2022/09/13 03:29:09;;;;;;;12.68;10.30;;;12.30;99.90;;;;;;6125792;23;20032;-78
2022/09/13 03:31:44;;;;;;;16.30;10.13;;;12.30;99.90;;;;;;6152324;23;20459;-79
2022/09/13 03:34:27;;;;;;;12.82;10.65;;;12.20;99.90;;;;;;6150347;23;20363;-77
2022/09/13 03:36:58;;;;;;;;;;;12.20;99.90;;;;;;6126052;23;20025;-78
2022/09/13 03:39:36;;;;;;;16.02;9.95;;;12.20;99.90;;;;;;6153786;23;20397;-78
2022/09/13 03:42:13;;;;;;;18.52;10.85;;;12.20;99.90;;;;;;6150475;23;20120;-78
2022/09/13 03:44:43;;;;;;;15.05;9.80;;;12.20;99.90;;;;;;6150648;23;20026;-78
2022/09/13 03:47:11;;;;;;;14.23;9.82;;;12.10;99.90;;;;;;6151032;23;20026;-79
2022/09/13 03:49:39;;;;;;;11.73;9.88;;;12.10;99.90;;;;;;6152967;23;20481;-79
2022/09/13 03:52:08;;;;;;;13.85;9.30;;;12.20;99.90;;;;;;6152094;23;20028;-78
2022/09/13 03:54:38;;;;;;;11.93;10.60;;;12.10;99.90;;;;;;6152497;23;20059;-79
2022/09/13 03:57:15;;;;;;;16.23;9.45;;;12.20;99.90;;;;;;6126367;23;20407;-79
2022/09/13 03:59:46;;;;;;;17.98;9.95;;;12.20;99.90;;;;;;6152772;23;20033;-79
2022/09/13 04:02:15;;;;;;;14.40;9.88;;;12.20;99.90;;;;;;6151986;23;20493;-74
2022/09/13 04:04:44;;;;;;;14.23;9.88;;;12.30;99.90;;;;;;6151505;23;20489;-74
2022/09/13 04:07:16;;;;;;;13.07;9.88;;;12.30;99.90;;;;;;6152966;23;20021;-73
2022/09/13 04:09:44;;;;;;;14.35;9.52;;;12.30;99.90;;;;;;6152642;23;20025;-74
2022/09/13 04:12:12;;;;;;;16.98;9.30;;;12.30;99.90;;;;;;6152643;23;20463;-74
2022/09/13 04:14:41;;;;;;;17.05;9.38;;;12.30;99.90;;;;;;6153104;23;20033;-74
2022/09/13 04:17:09;;;;;;;16.42;8.93;;;12.20;99.90;;;;;;6153649;23;20049;-74
2022/09/13 04:19:36;;;;;;;13.40;10.07;;;12.30;99.90;;;;;;6153014;23;20017;-73
2022/09/13 04:22:04;;;;;;;16.73;9.80;;;12.30;99.90;;;;;;6150992;23;20105;-73
2022/09/13 04:24:33;;;;;;;11.45;8.95;;;12.30;99.90;;;;;;6153089;23;20104;-74
2022/09/13 04:27:02;;;;;;;16.73;8.73;;;12.30;99.90;;;;;;6154295;23;20041;-73
2022/09/13 04:29:30;;;;;;;14.73;8.88;;;12.30;99.90;;;;;;6151902;23;20371;-74
2022/09/13 04:31:58;;;;;;;11.65;8.30;;;12.40;99.90;;;;;;6152568;23;20493;-74
2022/09/13 04:34:25;;;;;;;12.85;8.07;;;12.40;99.90;;;;;;6127040;23;20022;-74
2022/09/13 04:36:54;;;;;;;18.42;8.55;;;12.30;99.90;;;;;;6126745;23;20021;-78
2022/09/13 04:39:22;;;;;;;13.25;8.73;;;12.30;99.90;;;;;;6125095;23;20021;-78
2022/09/13 04:41:54;;;;;;;17.05;8.82;;;12.40;99.90;;;;;;6151794;23;20091;-74
2022/09/13 04:44:28;;;;;;;16.33;9.00;;;12.40;99.90;;;;;;6101819;23;20490;-78
2022/09/13 04:46:55;;;;;;;14.77;8.73;;;12.40;99.90;;;;;;6126204;23;20080;-72
2022/09/13 04:49:23;;;;;;;13.30;8.95;;;12.40;99.90;;;;;;6150317;23;20021;-75
2022/09/13 04:51:51;;;;;;;16.45;10.02;;;12.40;99.90;;;;;;6100735;23;20139;-78
2022/09/13 04:54:27;;;;;;;14.10;8.70;;;12.40;99.90;;;;;;6153046;23;20029;-73
2022/09/13 04:57:10;;;;;;;17.08;9.45;;;12.50;99.90;;;;;;6124019;23;20371;-83
2022/09/13 04:59:45;;;;;;;20.63;9.80;;;12.50;99.90;;;;;;6101068;23;20406;-75
2022/09/13 05:02:25;;;;;;;15.02;9.13;;;12.60;99.90;;;;;;6150560;23;20021;-71
2022/09/13 05:04:57;;;;;;;17.75;8.75;;;12.60;99.90;;;;;;6150720;23;20080;-74
2022/09/13 05:07:38;;;;;;;14.73;9.02;;;12.70;99.90;;;;;;6101514;23;20029;-73
2022/09/13 05:10:12;;;;;;;15.80;9.05;;;12.70;99.90;;;;;;6153017;23;20654;-71
2022/09/13 05:12:40;;;;;;;13.90;9.20;;;12.70;99.90;;;;;;6127393;23;20026;-72
2022/09/13 05:15:10;;;;;;;32.63;11.23;;;12.80;99.90;;;;;;6152914;23;20025;-72
2022/09/13 05:17:38;;;;;;;19.77;9.85;;;12.80;99.90;;;;;;6125583;23;20243;-73
2022/09/13 05:20:08;;;;;;;13.70;9.80;;;12.80;99.90;;;;;;6098708;23;20021;-77
2022/09/13 05:22:35;;;;;;;17.45;9.38;;;12.80;99.90;;;;;;6149732;23;20017;-77
2022/09/13 05:25:03;;;;;;;14.23;8.75;;;12.90;99.90;;;;;;6149440;23;20358;-76
2022/09/13 05:27:30;;;;;;;16.60;10.05;;;13.00;99.90;;;;;;6122177;23;20048;-77
2022/09/13 05:29:59;;;;;;;19.20;10.57;;;13.00;99.90;;;;;;6124961;23;20076;-76
2022/09/13 05:32:26;;;;;;;17.58;9.05;;;13.00;99.90;;;;;;6151675;23;20490;-77
2022/09/13 05:34:54;;;;;;;21.38;10.57;;;13.00;99.90;;;;;;6122618;23;20022;-76
2022/09/13 05:37:21;;;;;;;17.38;10.27;;;13.10;99.90;;;;;;6150632;23;20025;-76
2022/09/13 05:39:48;;;;;;;19.40;10.88;;;13.10;99.90;;;;;;6153805;23;20457;-76
2022/09/13 05:42:16;;;;;;;18.65;11.50;;;13.10;99.90;;;;;;6102646;23;20025;-75
2022/09/13 05:44:43;;;;;;;20.67;10.82;;;13.20;99.90;;;;;;6125340;23;20018;-76
2022/09/13 05:47:14;;;;;;;18.02;10.52;;;13.20;99.90;;;;;;6125428;23;20033;-76
2022/09/13 05:49:41;;;;;;;15.48;11.60;;;13.30;99.90;;;;;;6126256;23;20439;-77
2022/09/13 05:52:08;;;;;;;21.80;10.98;;;13.30;99.90;;;;;;6125588;23;20025;-77
2022/09/13 05:54:36;;;;;;;22.80;11.32;;;13.40;99.90;;;;;;6151261;23;20025;-76
2022/09/13 05:57:04;;;;;;;16.27;10.80;;;13.50;99.90;;;;;;6152051;23;20080;-77
2022/09/13 05:59:31;;;;;;;20.38;11.70;;;13.60;99.90;;;;;;6149490;23;20032;-76
2022/09/13 06:02:00;;;;;;;18.67;10.27;;;13.60;99.90;;;;;;6148916;23;20025;-76
2022/09/13 06:04:29;;;;;;;16.80;11.45;;;13.60;99.90;;;;;;6099216;23;20321;-76
2022/09/13 06:06:56;;;;;;;19.17;11.75;;;13.70;99.90;;;;;;6152464;23;20026;-78
2022/09/13 06:09:23;;;;;;;17.55;11.00;;;13.80;99.90;;;;;;6151867;23;20029;-76
2022/09/13 06:11:51;;;;;;;18.00;11.70;;;13.80;99.90;;;;;;6149855;23;20025;-76
2022/09/13 06:14:18;;;;;;;23.25;11.52;;;13.80;99.90;;;;;;6149540;23;20025;-76
2022/09/13 06:16:46;;;;;;;19.55;9.60;;;13.90;99.90;;;;;;6150543;23;20025;-78
2022/09/13 06:19:13;;;;;;;16.88;9.70;;;14.00;99.90;;;;;;6151670;23;20029;-78
2022/09/13 06:21:42;;;;;;;18.30;9.48;;;14.10;99.90;;;;;;6123267;23;20029;-77
2022/09/13 06:24:10;;;;;;;14.00;9.40;;;14.20;99.90;;;;;;6150024;23;20025;-78
2022/09/13 06:26:37;;;;;;;11.82;8.82;;;14.20;99.90;;;;;;6151634;23;20025;-78
2022/09/13 06:29:05;;;;;;;14.02;8.48;;;14.30;99.90;;;;;;6149842;23;20445;-74
2022/09/13 06:31:32;;;;;;;14.95;8.90;;;14.30;99.90;;;;;;6149008;23;20027;-72
2022/09/13 06:34:02;;;;;;;15.85;8.88;;;14.40;99.90;;;;;;6123395;23;20433;-73
2022/09/13 06:36:30;;;;;;;17.58;9.18;;;14.50;99.90;;;;;;6151447;23;20021;-77
2022/09/13 06:39:00;;;;;;;11.30;8.02;;;14.60;99.90;;;;;;6122861;23;20430;-74
2022/09/13 06:41:28;;;;;;;14.43;8.68;;;14.60;99.90;;;;;;6150826;23;20044;-75
2022/09/13 06:43:57;;;;;;;16.88;11.23;;;14.80;99.90;;;;;;6150351;23;20075;-76
2022/09/13 06:46:26;;;;;;;10.32;7.22;;;14.90;99.90;;;;;;6151554;23;20491;-76
2022/09/13 06:48:54;;;;;;;13.52;7.85;;;14.90;99.90;;;;;;6150360;23;20028;-77
2022/09/13 06:51:23;;;;;;;10.32;7.47;;;15.00;99.90;;;;;;6150205;23;20025;-77
2022/09/13 06:53:55;;;;;;;16.45;7.30;;;15.20;99.90;;;;;;6151117;23;20025;-78
2022/09/13 06:56:26;;;;;;;10.90;7.40;;;15.20;99.90;;;;;;6100385;23;20052;-77
2022/09/13 06:58:57;;;;;;;13.77;7.25;;;15.30;99.90;;;;;;6150389;23;20021;-77
2022/09/13 07:01:27;;;;;;;11.25;7.05;;;15.40;99.90;;;;;;6121746;23;20064;-77
2022/09/13 07:04:01;;;;;;;15.82;7.75;;;15.50;99.90;;;;;;6099492;23;20398;-76
2022/09/13 07:06:31;;;;;;;12.10;7.28;;;15.70;99.90;;;;;;6123361;23;20028;-76
2022/09/13 07:09:01;;;;;;;19.13;8.32;;;15.60;99.90;;;;;;6148328;23;20084;-76
2022/09/13 07:11:33;;;;;;;15.05;8.32;;;15.60;99.90;;;;;;6149357;23;20053;-73
2022/09/13 07:14:01;;;;;;;14.80;8.17;;;15.50;99.90;;;;;;6151214;23;20387;-73
2022/09/13 07:16:30;;;;;;;16.42;7.55;;;15.50;99.90;;;;;;6150112;23;20125;-72
2022/09/13 07:19:00;;;;;;;14.80;7.00;;;15.50;99.90;;;;;;6125212;23;20028;-73
2022/09/13 07:21:29;;;;;;;13.13;8.30;;;15.60;99.90;;;;;;6151659;23;20025;-73
2022/09/13 07:23:57;;;;;;;16.45;8.73;;;15.70;99.90;;;;;;6152579;23;20026;-73
2022/09/13 07:26:26;;;;;;;16.00;9.07;;;15.70;99.90;;;;;;6149762;23;20032;-71
2022/09/13 07:28:57;;;;;;;16.88;8.38;;;15.80;99.90;;;;;;6123641;23;20025;-74
2022/09/13 07:31:27;;;;;;;18.75;8.43;;;15.90;99.90;;;;;;6150665;23;20081;-71
2022/09/13 07:33:56;;;;;;;19.42;9.32;;;16.00;99.90;;;;;;6151182;23;20030;-71
2022/09/13 07:36:25;;;;;;;19.15;10.10;;;16.00;99.90;;;;;;6125458;23;20021;-73
2022/09/13 07:38:52;;;;;;;13.43;8.90;;;16.20;99.90;;;;;;6151576;23;20021;-72
2022/09/13 07:41:22;;;;;;;14.48;9.35;;;16.30;99.90;;;;;;6151870;23;20088;-72
2022/09/13 07:43:50;;;;;;;15.35;9.63;;;16.50;99.90;;;;;;6151301;23;20032;-72
2022/09/13 07:46:22;;;;;;;14.20;9.13;;;16.60;99.90;;;;;;6149741;23;20241;-72
2022/09/13 07:48:52;;;;;;;14.38;9.02;;;16.80;99.90;;;;;;6148563;23;20366;-72
2022/09/13 07:51:22;;;;;;;15.65;9.63;;;16.90;99.90;;;;;;6150831;23;20159;-71
2022/09/13 07:53:51;;;;;;;19.90;8.77;;;16.80;99.90;;;;;;6149907;23;20084;-72
2022/09/13 07:56:20;;;;;;;9.45;8.57;;;16.80;99.90;;;;;;6150834;23;20447;-71
2022/09/13 07:58:50;;;;;;;12.25;9.15;;;16.80;99.90;;;;;;6150472;23;20021;-70
2022/09/13 08:01:21;;;;;;;18.70;8.38;;;16.80;99.90;;;;;;6123711;23;20021;-71
2022/09/13 08:03:53;;;;;;;16.05;8.23;;;17.10;99.90;;;;;;6149126;23;20026;-70
2022/09/13 08:06:21;;;;;;;12.57;8.77;;;17.30;99.90;;;;;;6149628;23;20032;-70
2022/09/13 08:08:48;;;;;;;10.20;7.95;;;17.40;99.90;;;;;;6153069;23;20021;-71
2022/09/13 08:11:22;;;;;;;8.88;7.47;;;17.30;99.90;;;;;;6149800;23;20343;-71
2022/09/13 08:13:51;;;;;;;14.32;7.97;;;17.20;99.90;;;;;;6121600;23;20096;-72
2022/09/13 08:16:22;;;;;;;11.23;7.18;;;17.20;99.90;;;;;;6097016;23;20367;-72
2022/09/13 08:18:52;;;;;;;12.98;8.18;;;17.30;99.90;;;;;;6150029;23;20052;-70
2022/09/13 08:21:21;;;;;;;9.13;6.80;;;17.30;99.90;;;;;;6148123;23;20025;-70
2022/09/13 08:23:48;;;;;;;8.52;6.40;;;17.40;99.90;;;;;;6148391;23;20032;-71
2022/09/13 08:26:17;;;;;;;10.63;6.30;;;17.60;99.90;;;;;;6148870;23;20017;-72
2022/09/13 08:28:44;;;;;;;9.60;5.32;;;17.70;99.90;;;;;;6152587;23;20025;-71
2022/09/13 08:31:15;;;;;;;9.85;5.65;;;17.70;99.90;;;;;;6149482;23;20021;-70
2022/09/13 08:33:47;;;;;;;8.38;4.78;;;17.60;99.90;;;;;;6151168;23;20023;-72
2022/09/13 08:36:15;;;;;;;13.93;5.97;;;17.50;99.90;;;;;;6152823;23;20029;-71
2022/09/13 08:38:47;;;;;;;7.97;5.05;;;17.50;99.90;;;;;;6153380;23;20374;-72
2022/09/13 08:41:51;;;;;;;7.43;5.35;;;17.40;99.90;;;;;;6151910;23;20018;-71
2022/09/13 08:44:27;;;;;;;11.23;5.75;;;17.20;99.90;;;;;;6127766;23;20084;-72
2022/09/13 08:47:02;;;;;;;6.57;5.07;;;17.00;99.90;;;;;;6154193;23;20025;-71
2022/09/13 08:49:34;;;;;;;9.38;5.88;;;16.90;99.90;;;;;;6152795;23;20035;-70
2022/09/13 08:52:20;;;;;;;9.65;5.43;;;17.00;99.90;;;;;;6151473;23;20458;-73
2022/09/13 08:54:48;;;;;;;6.88;5.40;;;17.10;99.90;;;;;;6152796;23;20117;-71
2022/09/13 08:57:24;;;;;;;13.65;6.22;;;17.10;99.90;;;;;;6152519;23;20028;-73
2022/09/13 09:00:04;;;;;;;7.35;5.45;;;17.10;99.90;;;;;;6151512;23;20045;-71
2022/09/13 09:02:52;;;;;;;9.30;5.20;;;17.10;99.90;;;;;;6151325;23;20108;-71
2022/09/13 09:05:22;;;;;;;5.63;5.10;;;17.00;99.90;;;;;;6154366;23;20025;-71
2022/09/13 09:07:57;;;;;;;11.40;5.60;;;17.00;99.90;;;;;;6125981;23;20029;-72
2022/09/13 09:10:31;;;;;;;10.38;5.55;;;17.10;99.90;;;;;;6151193;23;20032;-72
2022/09/13 09:13:03;;;;;;;6.25;5.47;;;17.40;99.90;;;;;;6152434;23;20029;-71
2022/09/13 09:15:37;;;;;;;13.38;5.78;;;17.50;99.90;;;;;;6152680;23;20087;-72
2022/09/13 09:18:11;;;;;;;9.77;5.35;;;17.60;99.90;;;;;;6151522;23;20037;-73
2022/09/13 09:20:42;;;;;;;7.30;5.60;;;17.80;99.90;;;;;;6150955;23;20026;-71
2022/09/13 09:23:18;;;;;;;7.78;5.53;;;18.00;99.90;;;;;;6153664;23;20104;-71
2022/09/13 09:25:47;;;;;;;8.25;5.22;;;18.20;99.90;;;;;;6150838;23;20455;-71
2022/09/13 09:28:17;;;;;;;8.05;5.97;;;18.20;99.90;;;;;;6150436;23;20379;-71
2022/09/13 09:30:57;;;;;;;8.63;5.22;;;18.30;99.90;;;;;;6152100;23;20045;-71
2022/09/13 09:33:43;;;;;;;9.93;5.28;;;18.50;99.90;;;;;;6153906;23;20031;-72
2022/09/13 09:36:23;;;;;;;10.48;5.13;;;18.90;99.90;;;;;;6123857;23;20605;-73
2022/09/13 09:38:51;;;;;;;8.82;5.50;;;19.30;99.90;;;;;;6100384;23;20033;-74
2022/09/13 09:41:27;;;;;;;9.05;5.65;;;19.60;99.90;;;;;;6153305;23;20096;-73
2022/09/13 09:44:02;;;;;;;10.32;4.80;;;19.70;99.90;;;;;;6152543;23;20021;-73
2022/09/13 09:46:33;;;;;;;9.20;4.82;;;19.60;99.90;;;;;;6124761;23;20403;-74
2022/09/13 09:50:07;;;;;;;14.82;4.97;;;19.60;99.90;;;;;;6153288;23;20025;-73
2022/09/13 09:52:06;;;;;;;5.88;4.30;;;19.60;99.90;;;;;;6127072;23;20053;-73
2022/09/13 09:54:35;;;;;;;5.07;4.20;;;19.60;99.90;;;;;;6150935;23;20036;-74
2022/09/13 09:57:02;;;;;;;8.65;4.13;;;19.90;99.90;;;;;;6150132;23;20561;-73
2022/09/13 09:59:32;;;;;;;8.23;3.85;;;20.40;99.90;;;;;;6153021;23;20100;-72
2022/09/13 10:02:03;;;;;;;6.47;4.15;;;20.70;99.90;;;;;;6152140;23;20021;-72
2022/09/13 10:04:31;;;;;;;6.85;4.22;;;21.10;99.90;;;;;;6124229;23;20025;-73
2022/09/13 10:07:26;;;;;;;6.68;3.55;;;21.50;99.90;;;;;;6151327;23;20026;-73
2022/09/13 10:10:02;;;;;;;8.82;5.65;;;21.90;99.90;;;;;;6152501;23;20045;-72
2022/09/13 10:12:36;;;;;;;7.45;4.57;;;22.50;99.90;;;;;;6150661;23;20049;-74
2022/09/13 10:15:16;;;;;;;5.55;3.95;;;23.00;99.90;;;;;;6150876;23;20021;-72
2022/09/13 10:17:44;;;;;;;7.07;4.20;;;23.20;99.70;;;;;;6125441;23;20027;-74
2022/09/13 10:20:25;;;;;;;9.13;3.97;;;23.20;98.20;;;;;;6153196;23;20029;-72
2022/09/13 10:23:18;;;;;;;10.05;3.60;;;22.90;97.80;;;;;;6150082;23;20431;-72
2022/09/13 10:25:56;;;;;;;6.03;3.47;;;22.40;98.60;;;;;;6151429;23;20025;-72
2022/09/13 10:28:25;;;;;;;11.35;3.88;;;22.30;98.20;;;;;;6152751;23;20025;-76
2022/09/13 10:30:58;;;;;;;7.47;3.60;;;22.00;98.50;;;;;;6152005;23;20371;-72
2022/09/13 10:33:30;;;;;;;5.30;3.50;;;21.70;98.20;;;;;;6152427;23;20021;-77
2022/09/13 10:36:01;;;;;;;5.30;3.58;;;21.30;99.00;;;;;;6125273;23;20492;-78
2022/09/13 10:38:34;;;;;;;13.15;4.10;;;20.80;99.90;;;;;;6152561;23;20485;-77
2022/09/13 10:41:05;;;;;;;12.50;3.80;;;20.70;99.90;;;;;;6150346;23;20018;-73
2022/09/13 10:43:33;;;;;;;12.38;3.60;;;20.60;99.90;;;;;;6125790;23;20118;-71
2022/09/13 10:46:05;;;;;;;7.30;3.33;;;20.40;99.90;;;;;;6152817;23;20028;-72
2022/09/13 10:48:47;;;;;;;4.63;3.60;;;20.00;99.90;;;;;;6152277;23;20498;-76
2022/09/13 10:51:36;;;;;;;7.38;3.40;;;19.90;99.90;;;;;;6150573;23;20395;-76
2022/09/13 10:54:18;;;;;;;5.85;3.05;;;20.00;99.90;;;;;;6149810;23;20439;-77
2022/09/13 10:56:47;;;;;;;10.00;2.85;;;20.10;99.90;;;;;;6151799;23;20406;-76
2022/09/13 10:59:20;;;;;;;4.03;2.78;;;20.10;99.90;;;;;;6121824;23;20045;-77
2022/09/13 11:02:10;;;;;;;12.07;3.25;;;20.20;99.90;;;;;;6150131;23;20036;-77
2022/09/13 11:05:05;;;;;;;6.13;3.08;;;20.40;99.90;;;;;;6126337;23;20068;-77
2022/09/13 11:08:29;;;;;;;6.07;3.38;;;20.50;99.90;;;;;;6149838;23;20033;-76
2022/09/13 11:11:10;;;;;;;9.65;3.00;;;20.60;99.90;;;;;;6068554;23;20021;-76
2022/09/13 11:13:56;;;;;;;9.93;4.10;;;21.50;99.90;;;;;;6150485;23;20359;-76
2022/09/13 11:16:37;;;;;;;7.80;3.70;;;21.90;98.30;;;;;;6150216;23;20376;-76
2022/09/13 11:19:34;;;;;;;7.00;3.90;;;22.30;98.30;;;;;;6148298;23;20351;-77
2022/09/13 11:22:21;;;;;;;5.13;3.17;;;23.20;95.30;;;;;;6126143;23;20025;-77
2022/09/13 11:25:04;;;;;;;8.65;2.42;;;23.40;93.50;;;;;;6152610;23;20026;-77
2022/09/13 11:27:44;;;;;;;7.60;2.40;;;23.20;92.30;;;;;;6149986;23;20026;-77
2022/09/13 11:30:18;;;;;;;8.73;2.88;;;23.30;91.20;;;;;;6149895;23;20519;-77
2022/09/13 11:33:14;;;;;;;2.92;2.63;;;23.10;90.90;;;;;;6126840;23;20021;-77
2022/09/13 11:35:58;;;;;;;7.22;2.50;;;22.80;91.30;;;;;;6149902;23;20029;-77
2022/09/13 11:38:36;;;;;;;4.18;2.28;;;22.50;91.70;;;;;;6123381;23;20022;-77
2022/09/13 11:41:18;;;;;;;3.80;2.65;;;22.30;91.60;;;;;;6150463;23;20021;-77
2022/09/13 11:44:03;;;;;;;2.47;2.22;;;22.30;92.30;;;;;;6152024;23;20511;-77
2022/09/13 11:46:42;;;;;;;7.45;2.25;;;22.40;92.80;;;;;;6149962;23;20116;-77
2022/09/13 11:49:48;;;;;;;7.72;2.40;;;22.80;92.10;;;;;;6149845;23;20080;-77
2022/09/13 11:52:26;;;;;;;8.73;2.80;;;23.60;90.20;;;;;;6126685;23;20021;-78
2022/09/13 11:55:12;;;;;;;6.82;1.92;;;23.70;87.20;;;;;;6150513;23;20021;-75
2022/09/13 11:57:45;;;;;;;7.25;2.47;;;23.30;85.70;;;;;;6099212;23;20366;-77
2022/09/13 12:00:22;;;;;;;7.13;2.63;;;22.70;86.90;;;;;;6151416;23;20029;-78
2022/09/13 12:03:03;;;;;;;8.35;2.10;;;22.20;89.20;;;;;;6149765;23;20036;-77
2022/09/13 12:05:35;;;;;;;8.55;1.90;;;22.10;88.90;;;;;;6150539;23;20025;-76
2022/09/13 12:08:12;;;;;;;6.50;2.05;;;22.00;87.60;;;;;;6150924;23;20064;-77
2022/09/13 12:10:49;;;;;;;7.65;2.35;;;21.60;87.70;;;;;;6152427;23;20025;-78
2022/09/13 12:13:23;;;;;;;5.50;2.10;;;21.40;88.50;;;;;;6151846;23;20022;-77
2022/09/13 12:15:56;;;;;;;9.65;2.25;;;21.30;88.20;;;;;;6151619;23;20042;-76
2022/09/13 12:18:28;;;;;;;5.88;2.25;;;21.30;88.60;;;;;;6152815;23;20414;-76
2022/09/13 12:21:00;;;;;;;4.20;2.30;;;21.10;90.10;;;;;;6152684;23;20055;-76
2022/09/13 12:23:35;;;;;;;5.70;2.10;;;20.90;90.50;;;;;;6151850;23;20052;-78
2022/09/13 12:26:09;;;;;;;4.13;2.00;;;20.90;90.50;;;;;;6151479;23;20025;-77
2022/09/13 12:28:43;;;;;;;8.55;1.88;;;20.70;90.50;;;;;;6154276;23;20053;-78
2022/09/13 12:31:18;;;;;;;7.05;2.28;;;20.20;91.20;;;;;;6126209;23;20321;-79
2022/09/13 12:33:47;;;;;;;6.35;2.33;;;19.80;92.10;;;;;;6151263;23;20405;-79
2022/09/13 12:36:39;;;;;;;1.80;1.70;;;19.60;93.10;;;;;;6151594;23;20108;-79
2022/09/13 12:40:08;;;;;;;5.28;2.22;;;19.50;92.90;;;;;;6126648;23;20418;-74
2022/09/13 12:43:15;;;;;;;3.17;1.77;;;19.50;93.70;;;;;;6059726;23;20026;-73
2022/09/13 12:46:16;;;;;;;4.68;2.15;;;19.70;93.30;;;;;;6149475;23;20108;-73
2022/09/13 12:49:09;;;;;;;6.60;2.58;;;19.60;93.40;;;;;;6152827;23;20025;-74
2022/09/13 12:51:57;;;;;;;10.55;3.47;;;19.40;94.30;;;;;;6150318;23;20030;-79
2022/09/13 12:55:21;;;;;;;4.10;2.63;;;19.10;94.50;;;;;;6152329;23;20032;-79
2022/09/13 12:57:52;;;;;;;;;;;18.70;94.90;;;;;;6092162;23;20465;-79
2022/09/13 13:00:23;;;;;;;8.52;2.50;;;18.50;95.70;;;;;;6148154;23;19920;-78
2022/09/13 13:03:10;;;;;;;9.93;2.78;;;18.40;96.00;;;;;;6150644;23;20465;-74
2022/09/13 13:05:43;;;;;;;6.10;2.33;;;18.40;96.20;;;;;;6152440;23;20032;-75
2022/09/13 13:08:28;;;;;;;5.70;2.50;;;18.30;96.80;;;;;;6148963;23;20109;-73
2022/09/13 13:11:05;;;;;;;9.50;2.85;;;18.10;97.00;;;;;;6147856;23;20052;-73
2022/09/13 13:13:37;;;;;;;7.28;2.72;;;18.00;97.20;;;;;;6150127;23;20112;-74
2022/09/13 13:16:23;;;;;;;6.18;2.45;;;17.90;97.60;;;;;;6149852;23;20112;-74